Time;durP1;ratioP1;P1;durP2;ratioP2;P2;SDS_P1;SDS_P2;PMS_P1;PMS_P2;Temp;Humidity;BMP_temperature;BMP_pressure;BME280_temperature;BME280_humidity;BME280_pressure;Samples;Min_cycle;Max_cycle;Signal;HPM_P1;HPM_P2
2021/11/21 00:01:57;;;;;;;;;25.75;19.00;;;;;9.56;67.58;101443.53;4875749;29;45531;-88
2021/11/21 00:04:22;;;;;;;;;27.25;22.00;;;;;9.66;67.77;101458.13;4892293;29;45407;-88
2021/11/21 00:06:48;;;;;;;;;25.00;22.00;;;;;9.64;67.77;101449.25;4874804;29;45374;-90
2021/11/21 00:09:13;;;;;;;;;27.25;24.50;;;;;9.64;67.01;101448.34;4895680;29;46357;-90
2021/11/21 00:11:38;;;;;;;;;27.50;22.75;;;;;9.60;67.06;101428.91;4893306;29;45510;-88
2021/11/21 00:14:06;;;;;;;;;30.00;27.00;;;;;9.54;67.49;101418.03;4876933;29;45527;-88
2021/11/21 00:16:32;;;;;;;;;28.75;26.50;;;;;9.53;67.30;101424.09;4884489;29;45544;-88
2021/11/21 00:18:57;;;;;;;;;27.75;22.00;;;;;9.51;67.67;101413.50;4879727;29;48128;-89
2021/11/21 00:21:23;;;;;;;;;26.00;24.00;;;;;9.55;67.61;101420.78;4899176;29;45596;-89
2021/11/21 00:23:48;;;;;;;;;28.50;22.75;;;;;9.56;67.13;101425.19;4895796;29;45317;-89
2021/11/21 00:26:13;;;;;;;;;32.00;24.75;;;;;9.52;67.60;101420.56;4896541;29;45408;-87
2021/11/21 00:28:39;;;;;;;;;27.25;22.75;;;;;9.51;67.74;101421.38;4878818;29;46237;-90
2021/11/21 00:31:04;;;;;;;;;30.75;25.25;;;;;9.54;67.62;101415.41;4880411;29;45580;-92
2021/11/21 00:33:30;;;;;;;;;33.00;27.25;;;;;9.57;67.93;101415.59;4897885;29;45452;-89
2021/11/21 00:35:56;;;;;;;;;26.50;21.75;;;;;9.53;67.78;101411.00;4880745;29;45599;-90
2021/11/21 00:38:21;;;;;;;;;27.75;25.25;;;;;9.58;67.97;101422.69;4880506;29;47485;-88
2021/11/21 00:40:47;;;;;;;;;15.67;14.67;;;;;9.59;67.49;101424.47;4897551;29;45307;-89
2021/11/21 00:43:12;;;;;;;;;30.00;22.67;;;;;9.62;68.03;101416.78;4894096;29;45390;-87
2021/11/21 00:45:38;;;;;;;;;26.67;21.33;;;;;9.62;67.76;101411.53;4879071;29;45670;-85
2021/11/21 00:48:03;;;;;;;;;30.25;25.25;;;;;9.61;67.90;101407.13;4897309;29;46497;-89
2021/11/21 00:50:31;;;;;;;;;30.50;24.00;;;;;9.61;67.40;101399.28;4897135;29;45513;-95
2021/11/21 00:53:03;;;;;;;;;18.50;15.25;;;;;9.45;67.27;101372.16;4903407;28;45751;-88
2021/11/21 00:55:53;;;;;;;;;28.50;24.75;;;;;9.48;67.45;101382.78;4893881;29;45479;-89
2021/11/21 00:58:19;;;;;;;;;30.50;24.50;;;;;9.57;67.58;101399.88;4896449;29;46109;-89
2021/11/21 01:00:47;;;;;;;;;27.00;22.25;;;;;9.56;67.43;101398.09;4895686;29;45420;-90
2021/11/21 01:03:17;;;;;;;;;29.75;24.75;;;;;9.55;67.84;101401.50;4881320;29;45581;-90
2021/11/21 01:05:44;;;;;;;;;28.75;26.50;;;;;9.55;67.58;101396.28;4893172;29;45420;-90
2021/11/21 01:08:10;;;;;;;;;30.25;26.00;;;;;9.60;67.58;101400.06;4894678;29;45517;-90
2021/11/21 01:10:37;;;;;;;;;30.50;26.50;;;;;9.55;67.47;101389.31;4879660;29;45521;-89
2021/11/21 01:13:05;;;;;;;;;26.75;24.75;;;;;9.54;67.50;101389.22;4895135;29;45466;-90
2021/11/21 01:15:30;;;;;;;;;32.00;23.33;;;;;9.56;67.06;101396.34;4881206;29;45300;-90
2021/11/21 01:17:56;;;;;;;;;25.75;24.50;;;;;9.57;67.71;101399.88;4898409;29;46266;-93
2021/11/21 01:20:25;;;;;;;;;25.50;23.50;;;;;9.51;67.15;101382.06;4896280;29;46213;-89
2021/11/21 01:22:58;;;;;;;;;32.50;26.50;;;;;9.52;66.69;101393.47;4906229;28;45407;-96
2021/11/21 01:25:24;;;;;;;;;25.25;24.25;;;;;9.31;67.42;101359.91;4901393;29;44900;-96
2021/11/21 01:30:32;;;;;;;;;23.00;16.33;;;;;9.26;67.44;101362.25;5160225;23;45832;-96
2021/11/21 03:14:37;;;;;;;;;25.25;21.00;;;;;9.12;67.90;101285.47;4948022;28;44671;-96
2021/11/21 03:37:47;;;;;;;;;39.50;28.75;;;;;8.90;67.82;101227.47;5243718;23;45205;-96
2021/11/21 03:40:21;;;;;;;;;33.75;30.00;;;;;9.07;67.93;101258.09;4938424;28;44879;-96
2021/11/21 03:43:02;;;;;;;;;33.25;26.75;;;;;8.92;67.49;101233.69;4945128;28;44821;-96
2021/11/21 03:45:56;;;;;;;;;40.75;26.75;;;;;8.93;68.01;101238.13;4928104;28;45347;-96
2021/11/21 03:48:28;;;;;;;;;36.75;30.25;;;;;8.91;68.00;101237.13;4899384;28;45570;-96
2021/11/21 03:56:47;;;;;;;;;34.75;25.25;;;;;8.83;67.89;101234.06;4978597;23;45265;-96
2021/11/21 03:59:21;;;;;;;;;35.75;29.25;;;;;8.80;67.64;101244.34;4932934;28;47515;-96
2021/11/21 04:01:50;;;;;;;;;36.00;27.25;;;;;8.78;67.70;101242.44;4942447;28;44674;-96
2021/11/21 04:04:32;;;;;;;;;31.25;28.75;;;;;8.74;67.43;101230.88;4943556;28;44865;-96
2021/11/21 04:06:58;;;;;;;;;35.50;28.25;;;;;8.93;67.83;101269.56;4943097;28;44912;-96
2021/11/21 04:09:27;;;;;;;;;37.50;32.50;;;;;8.73;68.04;101238.63;4958926;28;47388;-96
2021/11/21 04:12:05;;;;;;;;;28.00;24.00;;;;;8.70;67.91;101227.19;4925790;28;44957;-96
2021/11/21 04:14:32;;;;;;;;;36.00;30.25;;;;;8.64;68.07;101215.41;4941015;28;44831;-96
2021/11/21 04:17:00;;;;;;;;;32.75;26.50;;;;;8.66;67.69;101216.44;4940654;28;44924;-96
2021/11/21 04:19:25;;;;;;;;;29.00;25.50;;;;;8.67;67.74;101216.50;4937920;28;47620;-96
2021/11/21 04:21:51;;;;;;;;;36.75;26.75;;;;;8.67;68.13;101212.97;4937222;28;45312;-96
2021/11/21 04:24:17;;;;;;;;;27.50;21.00;;;;;8.69;68.33;101216.59;4953575;28;46030;-96
2021/11/21 04:26:46;;;;;;;;;32.75;22.50;;;;;8.89;68.14;101246.59;4935425;28;44938;-96
2021/11/21 04:29:18;;;;;;;;;32.50;28.50;;;;;8.69;67.91;101211.34;4915715;28;47547;-96
2021/11/21 04:31:44;;;;;;;;;42.25;27.25;;;;;8.83;68.10;101223.59;4946230;28;45394;-96
2021/11/21 04:34:10;;;;;;;;;26.25;22.25;;;;;8.92;67.99;101235.41;4955890;28;44820;-96
2021/11/21 04:36:38;;;;;;;;;34.25;26.25;;;;;8.69;68.19;101204.41;4940450;28;45447;-96
2021/11/21 04:39:06;;;;;;;;;34.50;26.25;;;;;8.63;68.50;101193.59;4960225;28;47576;-96
2021/11/21 04:41:32;;;;;;;;;32.75;25.00;;;;;8.65;68.29;101189.34;4928682;28;44792;-96
2021/11/21 04:44:02;;;;;;;;;28.25;26.00;;;;;8.67;68.37;101192.03;4945043;28;44876;-96
2021/11/21 04:46:30;;;;;;;;;34.75;27.25;;;;;8.68;68.25;101186.00;4961749;28;44829;-96
2021/11/21 04:48:59;;;;;;;;;34.50;24.00;;;;;8.87;68.21;101215.88;4959835;28;45470;-96
2021/11/21 04:51:48;;;;;;;;;29.00;24.25;;;;;8.70;68.13;101184.38;4941279;28;44777;-96
2021/11/21 04:54:21;;;;;;;;;29.75;21.75;;;;;8.69;68.43;101177.34;4954500;28;45068;-96
2021/11/21 04:56:54;;;;;;;;;27.25;25.00;;;;;8.83;68.42;101202.63;4959217;28;44828;-96
2021/11/21 04:59:21;;;;;;;;;27.50;24.00;;;;;8.75;68.50;101176.81;4944380;28;47967;-96
2021/11/21 05:01:58;;;;;;;;;32.00;25.25;;;;;8.88;68.46;101199.38;4960776;28;45845;-96
2021/11/21 05:04:26;;;;;;;;;33.50;28.50;;;;;8.76;68.59;101174.25;4960767;28;45288;-96
2021/11/21 05:07:03;;;;;;;;;24.50;24.00;;;;;8.78;69.05;101171.75;4962199;28;45486;-96
2021/11/21 05:09:54;;;;;;;;;31.25;26.00;;;;;8.85;68.54;101180.88;4962777;28;45449;-96
2021/11/21 05:12:28;;;;;;;;;29.50;26.50;;;;;8.81;68.43;101172.81;4961755;28;45505;-96
2021/11/21 05:14:58;;;;;;;;;35.00;26.75;;;;;8.85;68.61;101168.69;4960741;28;44898;-96
2021/11/21 05:17:42;;;;;;;;;23.00;16.50;;;;;8.82;68.63;101160.66;4944622;28;44930;-96
2021/11/21 05:20:36;;;;;;;;;35.00;24.00;;;;;8.79;68.47;101153.50;4962746;28;45541;-96
2021/11/21 05:23:08;;;;;;;;;28.50;25.25;;;;;8.92;68.46;101177.78;4963814;28;44761;-96
2021/11/21 05:26:07;;;;;;;;;28.50;25.00;;;;;8.98;68.79;101187.75;4949178;28;44791;-96
2021/11/21 05:28:46;;;;;;;;;32.00;25.25;;;;;8.78;68.49;101158.66;4951361;28;44817;-96
2021/11/21 05:31:52;;;;;;;;;28.25;24.25;;;;;8.74;68.97;101156.66;4963878;28;45537;-96
2021/11/21 05:34:59;;;;;;;;;32.00;23.75;;;;;8.69;68.73;101133.75;4959238;28;44826;-96
2021/11/21 05:37:51;;;;;;;;;30.50;23.50;;;;;8.67;69.08;101127.53;4947260;28;45219;-96
2021/11/21 05:40:56;;;;;;;;;32.25;24.75;;;;;8.72;69.04;101146.13;4958996;28;44929;-96
2021/11/21 05:44:06;;;;;;;;;24.50;22.50;;;;;8.73;69.22;101150.56;4873299;29;47200;-96
2021/11/21 05:46:57;;;;;;;;;31.25;28.50;;;;;8.73;68.66;101152.25;4886037;29;45246;-96
2021/11/21 05:49:42;;;;;;;;;29.50;22.25;;;;;8.75;68.77;101155.88;4886040;29;45272;-96
2021/11/21 05:52:40;;;;;;;;;26.00;21.75;;;;;8.73;68.88;101139.16;4885458;29;44938;-96
2021/11/21 05:55:58;;;;;;;;;28.50;27.25;;;;;8.68;68.97;101131.97;4885073;29;46397;-96
2021/11/21 05:58:48;;;;;;;;;32.25;23.50;;;;;8.71;69.06;101144.34;4883199;29;44870;-96
2021/11/21 06:01:45;;;;;;;;;32.75;22.50;;;;;8.91;68.87;101163.84;4885246;29;44784;-96
2021/11/21 06:04:12;;;;;;;;;27.00;22.75;;;;;8.90;69.00;101161.09;4884280;29;44792;-96
2021/11/21 06:06:44;;;;;;;;;28.00;23.25;;;;;8.91;69.01;101152.44;4883540;29;45564;-96
2021/11/21 06:09:40;;;;;;;;;34.00;26.50;;;;;8.70;69.31;101118.97;4885869;29;44860;-96
2021/11/21 06:31:29;;;;;;;;;23.75;22.00;;;;;8.80;69.06;101108.22;5410666;23;46375;-96
2021/11/21 07:34:06;;;;;;;;;22.25;16.75;;;;;9.04;69.62;101130.50;4976347;28;45866;-96
2021/11/21 07:37:17;;;;;;;;;22.00;18.75;;;;;8.85;69.11;101094.47;4948977;28;46637;-96
2021/11/21 07:55:38;;;;;;;;;18.00;18.00;;;;;8.98;68.82;101096.09;5186803;23;45613;-96
2021/11/21 07:58:52;;;;;;;;;23.33;15.67;;;;;9.03;68.97;101106.03;4929543;28;45536;-96
2021/11/21 08:01:49;;;;;;;;;19.33;16.33;;;;;9.02;68.93;101105.94;4918790;28;44816;-96
2021/11/21 08:04:33;;;;;;;;;16.33;16.00;;;;;9.22;68.84;101129.75;4893726;28;44833;-96
2021/11/21 08:07:22;;;;;;;;;20.67;14.67;;;;;9.06;69.30;101092.22;4908868;29;44924;-96
2021/11/21 08:09:56;;;;;;;;;19.67;18.33;;;;;9.05;69.30;101072.97;4881073;29;46782;-96
2021/11/21 08:12:58;;;;;;;;;19.50;16.25;;;;;9.05;69.18;101078.22;4928150;28;44736;-96
2021/11/21 08:16:04;;;;;;;;;13.33;13.33;;;;;9.18;68.99;101101.56;4926282;28;44801;-96
2021/11/21 08:19:22;;;;;;;;;17.33;14.33;;;;;9.17;69.03;101087.59;4926607;28;44865;-96
2021/11/21 08:22:32;;;;;;;;;19.33;17.00;;;;;9.39;69.07;101123.75;4927592;28;46667;-96
2021/11/21 08:26:19;;;;;;;;;21.00;16.33;;;;;9.18;68.83;101081.50;4909982;28;44782;-96
2021/11/21 09:26:42;;;;;;;;;17.33;14.67;;;;;10.43;67.33;101113.50;5842053;23;46172;-96
2021/11/21 09:29:09;;;;;;;;;25.75;20.25;;;;;10.34;67.16;101094.63;4939936;28;47223;-96
2021/11/21 09:34:53;;;;;;;;;21.67;19.67;;;;;10.22;66.96;101085.31;4917448;28;44903;-96
2021/11/21 09:37:18;;;;;;;;;21.67;19.00;;;;;10.36;66.94;101101.75;4940078;28;45734;-96
2021/11/21 09:39:46;;;;;;;;;24.33;19.33;;;;;10.43;67.21;101115.22;4926425;28;47075;-96
2021/11/21 09:42:14;;;;;;;;;21.33;17.00;;;;;10.51;66.87;101116.56;4918085;28;45594;-89
2021/11/21 09:44:40;;;;;;;;;23.67;17.33;;;;;10.61;67.03;101133.69;4932431;28;45543;-89
2021/11/21 09:47:05;;;;;;;;;22.33;18.67;;;;;10.54;66.69;101098.31;4914130;28;45526;-89
2021/11/21 09:49:30;;;;;;;;;25.33;19.67;;;;;10.67;66.46;101110.34;4916226;28;48485;-87
2021/11/21 09:51:56;;;;;;;;;24.67;20.67;;;;;10.79;66.62;101119.69;4935229;28;45389;-89
2021/11/21 09:54:26;;;;;;;;;24.00;20.00;;;;;10.78;66.04;101102.09;4936008;28;45554;-87
2021/11/21 09:56:52;;;;;;;;;24.33;19.33;;;;;10.91;66.59;101101.91;4932825;28;45577;-89
2021/11/21 09:59:50;;;;;;;;;20.00;18.33;;;;;11.14;66.44;101110.03;4927770;28;46063;-87
2021/11/21 10:02:18;;;;;;;;;18.00;16.67;;;;;11.23;66.37;101113.94;4916770;28;45440;-92
2021/11/21 10:04:43;;;;;;;;;24.00;21.67;;;;;11.29;66.17;101101.97;4929352;28;45612;-89
2021/11/21 10:07:23;;;;;;;;;27.50;22.00;;;;;11.43;65.88;101101.75;4908855;28;45416;-88
2021/11/21 10:09:50;;;;;;;;;22.33;20.67;;;;;11.50;65.77;101097.66;4917997;28;47447;-89
2021/11/21 10:12:15;;;;;;;;;23.75;20.00;;;;;11.51;65.69;101089.88;4927543;28;45978;-88
2021/11/21 10:15:14;;;;;;;;;25.33;22.00;;;;;11.54;65.60;101094.38;4916830;28;45558;-89
2021/11/21 10:17:46;;;;;;;;;24.00;17.67;;;;;11.57;65.54;101102.38;4914991;28;45507;-91
2021/11/21 10:20:20;;;;;;;;;26.33;20.00;;;;;11.51;64.87;101095.13;4934472;28;45434;-93
2021/11/21 10:23:06;;;;;;;;;25.25;20.25;;;;;11.50;65.25;101100.28;4923740;28;45353;-89
2021/11/21 10:25:36;;;;;;;;;20.75;20.75;;;;;11.49;65.34;101103.78;4913245;28;45752;-88
2021/11/21 10:28:03;;;;;;;;;24.00;21.33;;;;;11.43;65.45;101095.59;4929035;28;45706;-88
2021/11/21 10:30:29;;;;;;;;;31.33;24.00;;;;;11.42;65.56;101102.56;4951749;28;48207;-88
2021/11/21 10:32:54;;;;;;;;;28.00;21.00;;;;;11.39;65.60;101098.06;4954816;28;45853;-89
2021/11/21 10:35:23;;;;;;;;;31.00;24.25;;;;;11.35;65.37;101090.88;4961241;28;45632;-86
2021/11/21 10:37:49;;;;;;;;;27.00;24.00;;;;;11.39;65.44;101086.66;4972825;28;45393;-89
2021/11/21 10:40:16;;;;;;;;;26.67;21.00;;;;;11.47;65.91;101093.16;4972596;28;46516;-89
2021/11/21 10:42:46;;;;;;;;;23.00;22.00;;;;;11.54;65.54;101091.75;4957563;28;45449;-88
2021/11/21 10:45:14;;;;;;;;;22.33;20.00;;;;;11.62;65.23;101086.84;4966607;28;45342;-88
2021/11/21 10:47:42;;;;;;;;;24.33;21.00;;;;;11.68;65.29;101083.56;4978034;28;45692;-89
2021/11/21 10:50:08;;;;;;;;;25.33;25.00;;;;;11.71;65.02;101088.97;4952359;28;48548;-87
2021/11/21 10:52:44;;;;;;;;;28.25;25.25;;;;;11.65;65.17;101080.81;4962225;28;45565;-88
2021/11/21 10:55:14;;;;;;;;;23.33;22.67;;;;;11.64;64.95;101082.56;4941468;28;45496;-89
2021/11/21 10:57:40;;;;;;;;;31.00;26.33;;;;;11.62;65.20;101079.84;4964868;28;46853;-90
2021/11/21 11:00:20;;;;;;;;;21.67;21.67;;;;;11.66;64.84;101080.88;4953451;28;46874;-89
2021/11/21 11:02:46;;;;;;;;;27.33;22.33;;;;;11.68;64.86;101086.19;4948689;28;46045;-89
2021/11/21 11:05:18;;;;;;;;;26.00;22.67;;;;;11.66;65.26;101082.63;4960629;28;45340;-88
2021/11/21 11:07:46;;;;;;;;;25.75;20.25;;;;;11.64;65.30;101079.00;4976127;28;44898;-87
2021/11/21 11:10:23;;;;;;;;;23.33;17.67;;;;;11.61;64.92;101083.31;4957347;28;48252;-89
2021/11/21 11:12:51;;;;;;;;;30.00;22.67;;;;;11.58;65.06;101077.91;4969928;28;45617;-87
2021/11/21 11:15:17;;;;;;;;;32.00;24.67;;;;;11.50;65.27;101072.28;4950216;28;45797;-86
2021/11/21 11:17:43;;;;;;;;;30.25;26.75;;;;;11.49;65.62;101070.47;4945052;28;45609;-85
2021/11/21 11:20:11;;;;;;;;;21.00;20.50;;;;;11.49;65.33;101080.13;4968383;28;46456;-86
2021/11/21 11:22:39;;;;;;;;;31.50;27.50;;;;;11.45;65.78;101075.50;4950343;28;45840;-85
2021/11/21 11:25:08;;;;;;;;;36.50;27.25;;;;;11.43;66.00;101072.84;4951107;28;45715;-86
2021/11/21 11:27:55;;;;;;;;;29.00;24.00;;;;;11.45;65.97;101062.38;4966897;28;45375;-83
2021/11/21 11:30:33;;;;;;;;;28.00;21.50;;;;;11.46;66.28;101054.59;4967971;28;45421;-85
2021/11/21 11:33:20;;;;;;;;;32.50;24.75;;;;;11.50;66.40;101055.59;4972078;28;45511;-84
2021/11/21 11:35:51;;;;;;;;;35.25;27.25;;;;;11.49;66.00;101051.19;4970393;28;45368;-83
2021/11/21 11:38:29;;;;;;;;;28.75;23.00;;;;;11.51;66.36;101060.03;4969717;28;45531;-84
2021/11/21 11:40:59;;;;;;;;;33.25;29.00;;;;;11.50;66.62;101058.22;4970168;28;45415;-85
2021/11/21 11:43:43;;;;;;;;;28.00;26.50;;;;;11.54;67.06;101054.03;4967779;28;45521;-85
2021/11/21 11:46:14;;;;;;;;;30.25;26.00;;;;;11.58;66.87;101051.59;4961580;28;45487;-84
2021/11/21 11:48:48;;;;;;;;;38.25;31.50;;;;;11.60;66.87;101049.94;4971004;28;45502;-84
2021/11/21 11:51:20;;;;;;;;;30.00;26.50;;;;;11.61;66.48;101040.34;4971712;28;45569;-85
2021/11/21 11:53:47;;;;;;;;;30.50;29.00;;;;;11.65;66.85;101049.28;4951452;28;45347;-85
2021/11/21 11:56:27;;;;;;;;;28.00;22.50;;;;;11.62;66.87;101045.66;4945634;28;45683;-84
2021/11/21 11:59:06;;;;;;;;;24.00;22.00;;;;;11.65;66.85;101036.13;4967097;28;47455;-84
2021/11/21 12:01:31;;;;;;;;;29.50;25.00;;;;;11.70;67.03;101042.50;4969072;28;45587;-83
2021/11/21 12:03:56;;;;;;;;;32.75;26.75;;;;;11.67;66.73;101024.84;4972075;28;45578;-84
2021/11/21 12:06:43;;;;;;;;;33.75;26.75;;;;;11.64;66.68;101029.97;4953054;28;45598;-84
2021/11/21 12:09:23;;;;;;;;;29.00;25.75;;;;;11.61;67.03;101022.84;4973219;28;45424;-85
2021/11/21 12:12:00;;;;;;;;;31.00;26.75;;;;;11.59;67.08;101016.63;4972152;28;46508;-84
2021/11/21 12:14:40;;;;;;;;;32.25;29.00;;;;;11.61;67.24;101022.84;4953268;28;45610;-84
2021/11/21 12:17:17;;;;;;;;;38.50;31.75;;;;;11.60;66.81;101021.03;4971127;28;45521;-85
2021/11/21 12:19:56;;;;;;;;;34.75;31.00;;;;;11.60;67.38;101013.13;4949113;28;46720;-85
2021/11/21 12:22:24;;;;;;;;;32.00;26.50;;;;;11.64;67.19;101016.81;4973219;28;45394;-86
2021/11/21 12:24:54;;;;;;;;;31.00;27.50;;;;;11.62;67.34;101008.84;4974857;28;45503;-86
2021/11/21 12:27:26;;;;;;;;;37.00;31.75;;;;;11.59;67.17;101000.84;4976462;28;45564;-87
2021/11/21 12:30:13;;;;;;;;;40.25;32.50;;;;;11.49;67.32;101004.75;4971548;28;45824;-87
2021/11/21 12:32:49;;;;;;;;;42.75;34.50;;;;;11.43;67.74;101009.75;4950183;28;47796;-87
2021/11/21 12:35:27;;;;;;;;;35.00;31.50;;;;;11.36;67.81;101000.69;4977133;28;45732;-88
2021/11/21 12:37:54;;;;;;;;;29.75;28.50;;;;;11.42;67.70;100999.13;4974243;28;45758;-87
2021/11/21 12:40:24;;;;;;;;;29.75;28.00;;;;;11.43;68.12;100993.06;4965560;28;45449;-86
2021/11/21 12:43:01;;;;;;;;;28.25;26.75;;;;;11.46;67.81;100987.97;4954433;28;47276;-86
2021/11/21 12:45:33;;;;;;;;;31.25;26.75;;;;;11.45;68.06;100978.25;4973967;28;45380;-87
2021/11/21 12:48:01;;;;;;;;;31.25;26.75;;;;;11.53;68.20;100992.66;4976391;28;45342;-86
2021/11/21 12:50:29;;;;;;;;;30.25;26.75;;;;;11.59;68.27;100985.06;4973458;28;45595;-87
2021/11/21 12:52:58;;;;;;;;;33.25;31.50;;;;;11.67;68.33;100981.88;4955163;28;48214;-86
2021/11/21 12:55:25;;;;;;;;;26.75;24.25;;;;;11.73;67.86;100975.16;4967183;28;45592;-87
2021/11/21 12:57:54;;;;;;;;;34.75;30.25;;;;;11.76;68.00;100982.28;4972690;28;45610;-86
2021/11/21 13:00:32;;;;;;;;;30.75;25.00;;;;;11.76;68.12;100968.22;4954230;28;45614;-87
2021/11/21 13:03:18;;;;;;;;;26.25;23.00;;;;;11.84;68.09;100980.88;4972811;28;46492;-86
2021/11/21 13:05:54;;;;;;;;;29.75;20.25;;;;;11.88;67.80;100974.00;4970020;28;45548;-86
2021/11/21 13:08:29;;;;;;;;;30.75;25.50;;;;;11.85;67.92;100963.38;4973135;28;45547;-86
2021/11/21 13:11:00;;;;;;;;;25.75;22.75;;;;;11.84;67.99;100964.19;4972192;28;45520;-86
2021/11/21 13:13:28;;;;;;;;;20.00;20.00;;;;;11.85;67.89;100968.63;4952368;28;48468;-86
2021/11/21 13:15:55;;;;;;;;;26.00;23.00;;;;;11.85;68.28;100959.00;4953155;28;45581;-88
2021/11/21 13:18:24;;;;;;;;;30.75;27.75;;;;;11.87;67.87;100964.34;4969480;28;45576;-87
2021/11/21 13:20:54;;;;;;;;;31.25;26.50;;;;;11.88;68.04;100965.25;4947844;28;45374;-87
2021/11/21 13:23:28;;;;;;;;;26.50;24.75;;;;;11.81;67.71;100958.81;4958002;28;46069;-87
2021/11/21 13:26:00;;;;;;;;;24.67;21.67;;;;;11.80;68.01;100960.53;4960973;28;45949;-88
2021/11/21 13:28:39;;;;;;;;;27.50;23.00;;;;;11.78;67.79;100962.19;4953738;28;45400;-88
2021/11/21 13:31:05;;;;;;;;;18.33;17.33;;;;;11.73;68.02;100953.19;4947006;28;45706;-87
2021/11/21 13:33:34;;;;;;;;;22.75;20.75;;;;;11.69;67.65;100954.81;4971772;28;45513;-88
2021/11/21 13:36:02;;;;;;;;;18.00;17.33;;;;;11.65;67.85;100957.25;4975016;28;45452;-87
2021/11/21 13:38:29;;;;;;;;;23.33;21.33;;;;;11.57;68.26;100954.28;4973307;28;45408;-87
2021/11/21 13:40:56;;;;;;;;;26.00;23.00;;;;;11.57;68.08;100959.53;4964718;28;45473;-87
2021/11/21 13:43:34;;;;;;;;;20.33;20.33;;;;;11.53;67.97;100968.09;4953000;28;47927;-88
2021/11/21 13:45:59;;;;;;;;;21.67;19.67;;;;;11.47;68.00;100964.34;4936735;28;45733;-87
2021/11/21 13:48:46;;;;;;;;;14.67;12.33;;;;;11.45;67.54;100971.28;4955203;28;45470;-88
2021/11/21 13:51:25;;;;;;;;;16.67;14.00;;;;;11.46;67.93;100973.09;4956716;28;45480;-87
2021/11/21 13:53:50;;;;;;;;;16.33;12.33;;;;;11.42;67.69;100975.47;4965925;28;46033;-87
2021/11/21 13:56:18;;;;;;;;;18.33;15.00;;;;;11.35;67.85;100975.22;4955258;28;45762;-87
2021/11/21 13:58:45;;;;;;;;;19.00;12.33;;;;;11.36;67.75;100981.38;4953331;28;45774;-87
2021/11/21 14:01:12;;;;;;;;;19.00;14.67;;;;;11.36;67.63;100986.63;4969553;28;45414;-88
2021/11/21 14:03:39;;;;;;;;;15.67;14.00;;;;;11.31;67.52;100975.03;4982474;28;45769;-87
2021/11/21 14:06:07;;;;;;;;;17.33;10.00;;;;;11.31;67.39;100975.91;4978588;28;45430;-87
2021/11/21 14:08:40;;;;;;;;;12.67;11.00;;;;;11.28;67.47;100975.78;4956239;28;45395;-86
2021/11/21 14:11:08;;;;;;;;;17.33;17.33;;;;;11.28;67.81;100968.78;4974456;28;45342;-86
2021/11/21 14:13:40;;;;;;;;;25.67;22.33;;;;;11.34;68.03;100977.78;4969874;28;46216;-86
2021/11/21 14:16:06;;;;;;;;;24.00;20.00;;;;;11.32;67.70;100979.44;4965275;28;45405;-87
2021/11/21 14:18:43;;;;;;;;;19.33;19.33;;;;;11.31;67.95;100981.19;4974212;28;45293;-87
2021/11/21 14:21:08;;;;;;;;;17.67;17.00;;;;;11.33;67.71;100987.41;4973040;28;45447;-88
2021/11/21 14:23:33;;;;;;;;;18.33;16.00;;;;;11.27;67.43;100981.84;4956490;28;47141;-87
2021/11/21 14:26:01;;;;;;;;;15.33;13.33;;;;;11.27;67.45;100982.75;4961096;28;45735;-88
2021/11/21 14:28:29;;;;;;;;;22.00;19.00;;;;;11.22;67.43;100986.88;4958502;28;45778;-87
2021/11/21 14:30:57;;;;;;;;;17.00;14.00;;;;;11.16;67.17;100991.84;4952956;28;46578;-87
2021/11/21 14:33:29;;;;;;;;;20.67;15.67;;;;;11.13;67.36;101000.47;4957192;28;47156;-88
2021/11/21 14:35:59;;;;;;;;;13.67;13.00;;;;;11.05;67.47;100999.25;4963671;28;46083;-88
2021/11/21 14:38:28;;;;;;;;;18.00;17.00;;;;;11.01;67.79;101000.81;4950586;28;45827;-87
2021/11/21 14:41:08;;;;;;;;;11.33;10.00;;;;;11.02;68.19;101004.34;4971512;28;45556;-86
2021/11/21 14:43:43;;;;;;;;;13.00;12.33;;;;;10.99;68.41;101009.44;4958599;28;47608;-87
2021/11/21 14:46:09;;;;;;;;;15.67;12.00;;;;;10.97;68.31;101012.00;4968110;28;45622;-87
2021/11/21 14:48:38;;;;;;;;;16.67;14.67;;;;;10.91;68.14;100999.47;4960059;28;45405;-86
2021/11/21 14:51:06;;;;;;;;;16.33;16.33;;;;;10.92;68.39;101011.78;4949673;28;45980;-85
2021/11/21 14:53:32;;;;;;;;;17.67;16.67;;;;;10.89;68.38;101006.38;4970007;28;46471;-86
2021/11/21 14:56:03;;;;;;;;;10.00;10.00;;;;;10.86;68.05;101000.06;4967846;28;45391;-85
2021/11/21 14:58:33;;;;;;;;;20.00;15.67;;;;;10.85;68.12;101007.03;4967359;28;45498;-86
2021/11/21 15:01:01;;;;;;;;;21.67;18.33;;;;;10.85;68.50;101020.19;4963247;28;45799;-87
2021/11/21 15:03:27;;;;;;;;;17.33;17.33;;;;;10.82;68.00;101005.16;4964908;28;45599;-87
2021/11/21 15:05:54;;;;;;;;;11.00;9.33;;;;;10.79;68.41;100998.88;4968200;28;48648;-86
2021/11/21 15:08:21;;;;;;;;;10.33;10.33;;;;;10.79;68.21;100999.78;4969086;28;45469;-86
2021/11/21 15:10:47;;;;;;;;;9.00;9.00;;;;;10.82;68.23;101006.94;4965451;28;45460;-84
2021/11/21 15:13:13;;;;;;;;;13.33;11.00;;;;;10.80;68.25;101005.91;4960647;28;45621;-85
2021/11/21 15:15:38;;;;;;;;;11.33;9.33;;;;;10.80;68.12;101012.09;4959240;28;45493;-87
2021/11/21 15:18:04;;;;;;;;;16.00;14.00;;;;;10.76;68.25;101002.25;4971579;28;45492;-85
2021/11/21 15:20:29;;;;;;;;;10.00;9.67;;;;;10.77;68.25;101009.28;4968233;28;45496;-85
2021/11/21 15:22:55;;;;;;;;;9.67;9.67;;;;;10.77;67.84;101013.69;4950331;28;46081;-86
2021/11/21 15:25:21;;;;;;;;;15.00;12.33;;;;;10.76;67.66;101023.28;4949154;28;45979;-85
2021/11/21 15:27:46;;;;;;;;;14.00;12.33;;;;;10.78;68.13;101023.34;4967084;28;45586;-85
2021/11/21 15:30:12;;;;;;;;;15.33;12.33;;;;;10.80;67.99;101022.59;4955624;28;54553;-87
2021/11/21 15:32:38;;;;;;;;;12.67;12.67;;;;;10.79;67.95;101019.91;4965630;28;47394;-85
2021/11/21 15:35:05;;;;;;;;;16.67;13.00;;;;;10.82;68.11;101027.94;4950769;28;45447;-84
2021/11/21 15:37:30;;;;;;;;;12.00;12.00;;;;;10.79;67.30;101030.41;4948131;28;45541;-87
2021/11/21 15:39:56;;;;;;;;;14.67;14.00;;;;;10.75;66.93;101044.19;4955783;28;45612;-87
2021/11/21 15:42:21;;;;;;;;;14.33;12.67;;;;;10.71;67.21;101041.44;4949020;28;47597;-87
2021/11/21 15:44:46;;;;;;;;;22.50;21.50;;;;;10.71;67.32;101044.06;4962134;28;45673;-90
2021/11/21 15:47:12;;;;;;;;;20.67;17.00;;;;;10.61;67.36;101045.31;4968649;28;45478;-88
2021/11/21 15:49:37;;;;;;;;;16.75;16.75;;;;;10.59;67.24;101048.69;4956042;28;45526;-88
2021/11/21 15:52:05;;;;;;;;;17.00;15.00;;;;;10.52;67.38;101043.94;4938857;28;48079;-89
2021/11/21 15:54:30;;;;;;;;;19.33;17.33;;;;;10.47;67.83;101047.22;4975049;28;45467;-90
2021/11/21 15:56:56;;;;;;;;;16.75;15.25;;;;;10.45;67.08;101054.09;4972572;28;45286;-90
2021/11/21 15:59:21;;;;;;;;;12.00;10.67;;;;;10.41;67.48;101046.00;4958164;28;45421;-90
2021/11/21 16:01:46;;;;;;;;;17.33;12.67;;;;;10.35;67.53;101044.88;4972573;28;45854;-89
2021/11/21 16:04:12;;;;;;;;;15.00;13.67;;;;;10.38;67.06;101055.53;4958819;28;45473;-88
2021/11/21 16:06:37;;;;;;;;;14.00;13.00;;;;;10.34;67.21;101048.31;4975775;28;45402;-89
2021/11/21 16:09:03;;;;;;;;;12.33;11.67;;;;;10.27;67.35;101044.47;4962911;28;45691;-89
2021/11/21 16:11:29;;;;;;;;;16.67;13.33;;;;;10.26;67.70;101045.28;4959493;28;48357;-86
2021/11/21 16:13:55;;;;;;;;;12.00;9.33;;;;;10.19;67.35;101048.41;4958655;28;45612;-91
2021/11/21 16:16:21;;;;;;;;;11.00;11.00;;;;;10.16;67.32;101059.66;4948415;28;45394;-89
2021/11/21 16:18:47;;;;;;;;;17.00;11.00;;;;;10.14;67.50;101056.06;4951596;28;45504;-87
2021/11/21 16:21:12;;;;;;;;;10.67;10.33;;;;;10.12;67.41;101070.81;4969860;28;45918;-88
2021/11/21 16:23:40;;;;;;;;;7.00;6.00;;;;;10.09;67.08;101070.66;4973513;28;45572;-88
2021/11/21 16:26:06;;;;;;;;;13.00;11.00;;;;;10.02;67.52;101058.03;4971070;28;45520;-88